createdAt,value
2023-01-02T00:01:06.303Z,94993.16
2023-01-02T00:03:33.190Z,94979.81
2023-01-02T00:06:03.862Z,94987.38
2023-01-02T00:08:30.749Z,94983.19
2023-01-02T00:10:57.501Z,94963.13
2023-01-02T00:13:24.753Z,94983.19
2023-01-02T00:15:51.528Z,94968.66
2023-01-02T00:18:18.308Z,94975.97
2023-01-02T00:20:45.043Z,94981.78
2023-01-02T00:23:11.795Z,94965.13
2023-01-02T00:25:38.641Z,94962.88
2023-01-02T00:28:05.420Z,94958.38
2023-01-02T00:30:37.998Z,94957.06
2023-01-02T00:33:06.858Z,94965.56
2023-01-02T00:35:34.478Z,94940.66
2023-01-02T00:38:01.283Z,94942.78
2023-01-02T00:40:28.097Z,94935.78
2023-01-02T00:42:54.863Z,94936.84
2023-01-02T00:45:21.627Z,94951.97
2023-01-02T00:47:48.452Z,94929.75
2023-01-02T00:50:15.285Z,94937.22
2023-01-02T00:52:42.083Z,94946.06
2023-01-02T00:55:09.362Z,94948.66
2023-01-02T00:57:36.431Z,94948.56
2023-01-02T01:00:05.480Z,94932.81
2023-01-02T01:02:32.565Z,94947.25
2023-01-02T01:04:59.400Z,94950.56
2023-01-02T01:07:26.188Z,94924.78
2023-01-02T01:09:52.930Z,94960.34
2023-01-02T01:12:19.713Z,94921.00
2023-01-02T01:14:46.450Z,94944.59
2023-01-02T01:17:13.200Z,94931.88
2023-01-02T01:19:40.022Z,94952.75
2023-01-02T01:22:06.758Z,94940.84
2023-01-02T01:24:33.518Z,94940.13
2023-01-02T01:27:00.250Z,94948.88
2023-01-02T01:29:26.996Z,94937.06
2023-01-02T01:31:53.804Z,94934.72
2023-01-02T01:34:22.692Z,94938.47
2023-01-02T01:36:49.427Z,94918.97
2023-01-02T01:39:16.359Z,94932.31
2023-01-02T01:41:43.278Z,94919.59
2023-01-02T01:44:47.192Z,94932.22
2023-01-02T01:47:27.276Z,94930.19
2023-01-02T01:50:32.813Z,94928.41
2023-01-02T01:53:14.464Z,94917.88
2023-01-02T01:55:46.470Z,94925.44
2023-01-02T01:58:21.737Z,94939.66
2023-01-02T02:00:49.098Z,94927.13
2023-01-02T02:03:20.928Z,94931.34
2023-01-02T02:05:48.075Z,94942.09
2023-01-02T02:08:30.950Z,94923.06
2023-01-02T02:11:00.182Z,94914.81
2023-01-02T02:13:27.489Z,94934.56
2023-01-02T02:16:18.387Z,94936.28
2023-01-02T02:18:50.680Z,94928.13
2023-01-02T02:21:33.043Z,94928.94
2023-01-02T02:24:56.524Z,94930.84
2023-01-02T02:27:40.178Z,94930.84
2023-01-02T02:30:08.093Z,94929.41
2023-01-02T02:32:53.014Z,94930.13
2023-01-02T02:35:41.805Z,94932.94
2023-01-02T02:38:23.148Z,94918.16
2023-01-02T02:41:05.196Z,94906.81
2023-01-02T02:44:17.965Z,94903.03
2023-01-02T02:47:01.993Z,94919.94
2023-01-02T02:50:09.393Z,94920.91
2023-01-02T02:53:13.146Z,94925.84
2023-01-02T02:55:47.969Z,94895.75
2023-01-02T02:58:16.715Z,94885.63
2023-01-02T03:00:44.635Z,94888.78
2023-01-02T03:03:19.999Z,94904.94
2023-01-02T03:06:23.126Z,94889.44
2023-01-02T03:09:02.073Z,94879.06
2023-01-02T03:11:55.561Z,94892.09
2023-01-02T03:14:58.701Z,94883.44
2023-01-02T03:17:52.445Z,94885.44
2023-01-02T03:20:22.951Z,94871.97
2023-01-02T03:22:55.153Z,94882.25
2023-01-02T03:25:23.162Z,94874.94
2023-01-02T03:27:51.430Z,94886.38
2023-01-02T03:30:21.800Z,94885.66
2023-01-02T03:33:01.435Z,94868.66
2023-01-02T03:35:36.981Z,94887.56
2023-01-02T03:38:09.521Z,94875.50
2023-01-02T03:40:44.523Z,94884.97
2023-01-02T03:43:29.276Z,94888.28
2023-01-02T03:46:10.209Z,94900.09
2023-01-02T03:48:53.958Z,94885.16
2023-01-02T03:51:20.984Z,94890.88
2023-01-02T03:53:50.196Z,94891.06
2023-01-02T03:56:29.528Z,94888.47
2023-01-02T03:59:21.237Z,94884.84
2023-01-02T04:02:15.758Z,94874.94
2023-01-02T04:05:17.072Z,94885.66
2023-01-02T04:08:00.712Z,94874.94
2023-01-02T04:10:29.767Z,94881.19
2023-01-02T04:13:02.502Z,94874.31
2023-01-02T04:15:33.691Z,94876.22
2023-01-02T04:18:19.762Z,94872.91
2023-01-02T04:20:50.702Z,94889.19
2023-01-02T04:23:26.991Z,94863.22
2023-01-02T04:26:03.323Z,94871.16
2023-01-02T04:28:33.459Z,94872.69
2023-01-02T04:31:36.404Z,94868.44
2023-01-02T04:34:04.887Z,94856.41
2023-01-02T04:36:38.196Z,94863.25
2023-01-02T04:39:05.123Z,94870.00
2023-01-02T04:41:34.979Z,94864.66
2023-01-02T04:44:01.846Z,94864.31
2023-01-02T04:46:29.667Z,94855.59
2023-01-02T04:48:57.404Z,94868.00
2023-01-02T04:51:24.759Z,94855.19
2023-01-02T04:53:53.168Z,94859.94
2023-01-02T04:56:20.922Z,94867.25
2023-01-02T04:58:48.561Z,94859.72
2023-01-02T05:01:18.969Z,94873.63
2023-01-02T05:03:49.163Z,94854.47
2023-01-02T05:06:16.288Z,94872.44
2023-01-02T05:08:43.832Z,94858.97
2023-01-02T05:11:16.935Z,94875.75
2023-01-02T05:13:44.022Z,94872.44
2023-01-02T05:16:11.525Z,94875.75
2023-01-02T05:18:38.502Z,94886.72
2023-01-02T05:21:31.298Z,94879.06
2023-01-02T05:24:01.622Z,94863.53
2023-01-02T05:26:30.797Z,94882.38
2023-01-02T05:28:57.657Z,94855.66
2023-01-02T05:31:24.547Z,94859.91
2023-01-02T05:33:53.270Z,94883.53
2023-01-02T05:36:21.037Z,94877.63
2023-01-02T05:38:47.946Z,94884.47
2023-01-02T05:41:15.211Z,94847.59
2023-01-02T05:43:42.287Z,94868.50
2023-01-02T05:46:09.197Z,94895.91
2023-01-02T05:48:36.027Z,94890.91
2023-01-02T05:51:05.156Z,94893.50
2023-01-02T05:53:32.058Z,94883.38
2023-01-02T05:56:17.973Z,94892.94
2023-01-02T05:58:47.286Z,94896.84
2023-01-02T06:01:18.107Z,94894.47
2023-01-02T06:03:50.857Z,94895.63
2023-01-02T06:06:20.727Z,94889.72
2023-01-02T06:08:47.530Z,94874.00
2023-01-02T06:11:14.661Z,94888.06
2023-01-02T06:13:41.374Z,94887.69
2023-01-02T06:16:10.513Z,94890.78
2023-01-02T06:18:39.549Z,94897.59
2023-01-02T06:21:12.934Z,94898.22
2023-01-02T06:23:40.622Z,94875.66
2023-01-02T06:26:19.347Z,94907.06
2023-01-02T06:28:49.925Z,94910.59
2023-01-02T06:31:22.478Z,94900.19
2023-01-02T06:33:57.658Z,94890.06
2023-01-02T06:36:25.077Z,94906.81
2023-01-02T06:38:52.004Z,94897.59
2023-01-02T06:41:18.794Z,94900.31
2023-01-02T06:43:48.438Z,94903.03
2023-01-02T06:46:18.004Z,94897.84
2023-01-02T06:48:47.403Z,94901.72
2023-01-02T06:51:18.825Z,94903.44
2023-01-02T06:53:46.047Z,94904.19
2023-01-02T06:56:17.413Z,94900.13
2023-01-02T06:58:44.245Z,94897.16
2023-01-02T07:01:23.147Z,94917.16
2023-01-02T07:03:50.464Z,94922.22
2023-01-02T07:06:22.153Z,94919.00
2023-01-02T07:08:49.747Z,94902.97
2023-01-02T07:11:23.635Z,94908.63
2023-01-02T07:13:53.760Z,94907.00
2023-01-02T07:16:22.664Z,94921.19
2023-01-02T07:18:51.459Z,94922.03
2023-01-02T07:21:18.349Z,94906.56
2023-01-02T07:23:45.202Z,94918.59
2023-01-02T07:26:12.897Z,94920.13
2023-01-02T07:28:40.263Z,94910.59
2023-01-02T07:31:12.749Z,94920.31
2023-01-02T07:33:39.602Z,94909.66
2023-01-02T07:36:10.727Z,94925.16
2023-01-02T07:38:39.267Z,94928.09
2023-01-02T07:41:15.681Z,94920.31
2023-01-02T07:43:44.281Z,94933.75
2023-01-02T07:46:12.106Z,94921.03
2023-01-02T07:48:38.903Z,94916.75
2023-01-02T07:51:07.567Z,94930.97
2023-01-02T07:53:34.936Z,94891.97
2023-01-02T07:56:02.827Z,94929.34
2023-01-02T07:58:30.013Z,94930.06
2023-01-02T08:01:03.266Z,94924.25
2023-01-02T08:03:33.850Z,94928.44
2023-01-02T08:06:09.229Z,94944.38
2023-01-02T08:08:38.023Z,94941.06
2023-01-02T08:11:11.001Z,94939.28
2023-01-02T08:13:37.929Z,94939.28
2023-01-02T08:16:11.212Z,94935.25
2023-01-02T08:18:38.604Z,94937.66
2023-01-02T08:21:05.950Z,94953.97
2023-01-02T08:23:33.657Z,94960.59
2023-01-02T08:26:02.704Z,94970.50
2023-01-02T08:28:30.013Z,94955.13
2023-01-02T08:30:56.990Z,94959.50
2023-01-02T08:33:23.795Z,94951.00
2023-01-02T08:35:50.676Z,94961.53
2023-01-02T08:38:17.456Z,94975.28
2023-01-02T08:40:44.451Z,94968.59
2023-01-02T08:43:11.248Z,94973.31
2023-01-02T08:45:37.990Z,94964.47
2023-01-02T08:48:20.997Z,94951.47
2023-01-02T08:50:49.917Z,94961.28
2023-01-02T08:53:17.191Z,94943.44
2023-01-02T08:55:43.962Z,94973.59
2023-01-02T08:58:11.214Z,94964.00
2023-01-02T09:00:38.056Z,94965.91
2023-01-02T09:03:04.994Z,94975.00
2023-01-02T09:05:31.905Z,94964.84
2023-01-02T09:07:59.179Z,94971.63
2023-01-02T09:10:26.053Z,94964.19
2023-01-02T09:12:52.934Z,94971.16
2023-01-02T09:15:20.054Z,94948.44
2023-01-02T09:17:46.903Z,94952.97
2023-01-02T09:20:13.677Z,94972.94
2023-01-02T09:22:40.790Z,94961.94
2023-01-02T09:25:08.287Z,94971.44
2023-01-02T09:27:35.121Z,94971.31
2023-01-02T09:30:01.912Z,94962.00
2023-01-02T09:32:28.757Z,94989.41
2023-01-02T09:34:55.533Z,95000.75
2023-01-02T09:37:22.317Z,95000.50
2023-01-02T09:39:49.121Z,95004.91
2023-01-02T09:42:17.477Z,94994.13
2023-01-02T09:44:54.753Z,95001.69
2023-01-02T09:47:29.565Z,94990.00
2023-01-02T09:50:03.592Z,94973.31
2023-01-02T09:52:45.732Z,94988.31
2023-01-02T09:55:48.547Z,94990.78
2023-01-02T09:58:26.298Z,94991.50
2023-01-02T10:00:53.349Z,95021.88
2023-01-02T10:03:50.310Z,95020.06
2023-01-02T10:06:29.505Z,95009.88
2023-01-02T10:09:14.330Z,95013.50
2023-01-02T10:12:07.521Z,95008.38
2023-01-02T10:14:55.438Z,95010.25
2023-01-02T10:17:23.736Z,94997.44
2023-01-02T10:20:04.186Z,95000.13
2023-01-02T10:22:48.160Z,95010.97
2023-01-02T10:25:24.560Z,95008.81
2023-01-02T10:27:58.178Z,95003.00
2023-01-02T10:30:28.222Z,95002.06
2023-01-02T10:33:10.936Z,95007.34
2023-01-02T10:35:51.068Z,95009.13
2023-01-02T10:38:19.717Z,95003.91
2023-01-02T10:40:49.108Z,95006.03
2023-01-02T10:43:17.104Z,95000.69
2023-01-02T10:45:44.208Z,95007.94
2023-01-02T10:48:12.197Z,95015.78
2023-01-02T10:50:44.577Z,95011.50
2023-01-02T10:53:29.490Z,95017.44
2023-01-02T10:55:56.259Z,95008.34
2023-01-02T10:58:26.888Z,94999.00
2023-01-02T11:01:19.937Z,95003.44
2023-01-02T11:03:47.595Z,95021.78
2023-01-02T11:06:29.991Z,95018.75
2023-01-02T11:09:15.634Z,95002.16
2023-01-02T11:11:50.166Z,95010.69
2023-01-02T11:14:17.006Z,95024.44
2023-01-02T11:16:43.852Z,94996.78
2023-01-02T11:19:27.460Z,94991.44
2023-01-02T11:21:57.046Z,95014.13
2023-01-02T11:24:27.192Z,94994.00
2023-01-02T11:26:55.258Z,94990.56
2023-01-02T11:29:33.305Z,94999.03
2023-01-02T11:32:02.640Z,95003.25
2023-01-02T11:34:40.705Z,95000.84
2023-01-02T11:37:13.624Z,94998.53
2023-01-02T11:39:41.245Z,95000.69
2023-01-02T11:42:45.769Z,95014.28
2023-01-02T11:45:18.299Z,95001.31
2023-01-02T11:47:51.195Z,94989.19
2023-01-02T11:50:24.236Z,95006.13
2023-01-02T11:53:13.515Z,95007.75
2023-01-02T11:55:53.413Z,94996.66
2023-01-02T11:58:31.457Z,94998.81
2023-01-02T12:01:25.441Z,94989.03
2023-01-02T12:03:52.644Z,94995.84
2023-01-02T12:06:24.024Z,95001.69
2023-01-02T12:09:11.404Z,94997.47
2023-01-02T12:12:08.343Z,94994.91
2023-01-02T12:14:54.132Z,95000.72
2023-01-02T12:17:42.337Z,95008.97
2023-01-02T12:20:48.565Z,94996.19
2023-01-02T12:23:42.603Z,94993.44
2023-01-02T12:26:27.308Z,94977.97
2023-01-02T12:29:46.727Z,94993.09
2023-01-02T12:32:26.433Z,94956.56
2023-01-02T12:35:06.997Z,94976.28
2023-01-02T12:37:49.674Z,94983.84
2023-01-02T12:41:10.832Z,94986.13
2023-01-02T12:44:06.646Z,94983.34
2023-01-02T12:47:09.950Z,94974.41
2023-01-02T12:50:04.022Z,94980.81
2023-01-02T12:52:58.269Z,94986.13
2023-01-02T12:55:56.316Z,94979.66
2023-01-02T12:58:43.948Z,94989.53
2023-01-02T13:01:54.195Z,94986.16
2023-01-02T13:04:31.918Z,94984.63
2023-01-02T13:07:28.256Z,94985.16
2023-01-02T13:09:57.841Z,94968.19
2023-01-02T13:12:30.633Z,94978.44
2023-01-02T13:15:09.012Z,94985.88
2023-01-02T13:18:26.168Z,95004.78
2023-01-02T13:21:09.325Z,94993.00
2023-01-02T13:23:47.022Z,95001.38
2023-01-02T13:26:27.033Z,95015.00
2023-01-02T13:29:03.918Z,95017.34
2023-01-02T13:31:46.401Z,95006.06
2023-01-02T13:34:23.233Z,95012.75
2023-01-02T13:37:02.202Z,95010.53
2023-01-02T13:39:52.368Z,95009.38
2023-01-02T13:42:54.291Z,95017.03
2023-01-02T13:45:31.740Z,95024.69
2023-01-02T13:48:02.689Z,95021.13
2023-01-02T13:50:33.976Z,95020.97
2023-01-02T13:53:10.507Z,95029.78
2023-01-02T13:55:39.953Z,95030.25
2023-01-02T13:58:18.610Z,95024.41
2023-01-02T14:00:54.685Z,95037.75
2023-01-02T14:03:23.050Z,95032.47
2023-01-02T14:06:39.690Z,95030.34
2023-01-02T14:09:08.235Z,95043.22
2023-01-02T14:11:56.642Z,95034.19
2023-01-02T14:14:34.869Z,95050.03
2023-01-02T14:17:26.709Z,95036.44
2023-01-02T14:20:18.228Z,95056.78
2023-01-02T14:22:50.468Z,95060.31
2023-01-02T14:25:17.909Z,95061.38
2023-01-02T14:28:01.028Z,95064.56
2023-01-02T14:30:39.413Z,95074.34
2023-01-02T14:33:09.741Z,95087.97
2023-01-02T14:35:49.611Z,95056.72
2023-01-02T14:38:27.028Z,95084.44
2023-01-02T14:40:54.120Z,95066.41
2023-01-02T14:43:34.107Z,95080.31
2023-01-02T14:46:24.407Z,95088.69
2023-01-02T14:49:25.108Z,95101.06
2023-01-02T14:52:07.247Z,95084.28
2023-01-02T14:54:47.342Z,95088.78
2023-01-02T14:57:37.156Z,95100.41
2023-01-02T15:00:14.357Z,95109.31
2023-01-02T15:02:46.178Z,95109.31
2023-01-02T15:05:28.043Z,95109.84
2023-01-02T15:07:56.789Z,95094.56
2023-01-02T15:10:25.347Z,95120.56
2023-01-02T15:13:11.051Z,95124.38
2023-01-02T15:15:46.117Z,95142.00
2023-01-02T15:18:17.789Z,95138.56
2023-01-02T15:20:50.703Z,95142.16
2023-01-02T15:23:22.512Z,95117.63
2023-01-02T15:25:49.419Z,95141.84
2023-01-02T15:28:32.252Z,95159.78
2023-01-02T15:31:10.809Z,95174.44
2023-01-02T15:33:37.882Z,95169.28
2023-01-02T15:36:38.181Z,95181.66
2023-01-02T15:39:33.778Z,95188.34
2023-01-02T15:42:07.980Z,95184.16
2023-01-02T15:44:57.494Z,95170.13
2023-01-02T15:47:28.187Z,95199.50
2023-01-02T15:49:56.542Z,95197.16
2023-01-02T15:52:31.154Z,95201.91
2023-01-02T15:54:59.899Z,95206.75
2023-01-02T15:57:34.352Z,95218.44
2023-01-02T16:00:01.280Z,95235.44
2023-01-02T16:02:41.121Z,95227.75
2023-01-02T16:05:18.407Z,95242.78
2023-01-02T16:07:57.530Z,95233.44
2023-01-02T16:10:31.135Z,95218.72
2023-01-02T16:13:25.525Z,95241.16
2023-01-02T16:16:15.358Z,95235.56
2023-01-02T16:18:49.085Z,95248.75
2023-01-02T16:21:18.095Z,95243.19
2023-01-02T16:23:52.815Z,95247.66
2023-01-02T16:26:24.916Z,95253.06
2023-01-02T16:28:51.742Z,95266.25
2023-01-02T16:31:21.711Z,95237.56
2023-01-02T16:33:49.100Z,95274.72
2023-01-02T16:36:15.870Z,95282.63
2023-01-02T16:38:59.642Z,95276.72
2023-01-02T16:42:16.903Z,95271.78
2023-01-02T16:44:55.329Z,95280.53
2023-01-02T16:47:30.598Z,95263.22
2023-01-02T16:49:57.463Z,95243.44
2023-01-02T16:52:24.257Z,95259.41
2023-01-02T16:54:54.262Z,95281.69
2023-01-02T16:57:23.431Z,95294.50
2023-01-02T16:59:50.209Z,95239.25
2023-01-02T17:02:18.174Z,95255.97
2023-01-02T17:04:45.022Z,95248.19
2023-01-02T17:07:15.698Z,95275.88
2023-01-02T17:09:45.409Z,95289.56
2023-01-02T17:12:12.665Z,95288.22
2023-01-02T17:14:39.549Z,95293.81
2023-01-02T17:17:06.717Z,95271.31
2023-01-02T17:19:33.598Z,95255.78
2023-01-02T17:22:00.437Z,95273.72
2023-01-02T17:24:27.364Z,95290.75
2023-01-02T17:26:54.245Z,95292.81
2023-01-02T17:29:21.218Z,95297.25
2023-01-02T17:31:48.966Z,95300.78
2023-01-02T17:34:16.035Z,95299.47
2023-01-02T17:36:42.887Z,95271.03
2023-01-02T17:39:09.696Z,95249.06
2023-01-02T17:41:36.481Z,95240.22
2023-01-02T17:44:03.924Z,95292.56
2023-01-02T17:47:09.177Z,95300.44
2023-01-02T17:49:21.091Z,95303.38
2023-01-02T17:51:48.031Z,95309.63
2023-01-02T17:54:14.794Z,95302.03
2023-01-02T17:56:41.594Z,95298.28
2023-01-02T17:59:08.350Z,95302.06
2023-01-02T18:01:35.804Z,95325.94
2023-01-02T18:04:02.582Z,95325.72
2023-01-02T18:06:30.354Z,95335.50
2023-01-02T18:08:57.080Z,95324.50
2023-01-02T18:11:24.333Z,95324.69
2023-01-02T18:13:54.581Z,95330.72
2023-01-02T18:16:32.334Z,95329.28
2023-01-02T18:19:01.415Z,95335.91
2023-01-02T18:21:33.198Z,95330.50
2023-01-02T18:24:11.316Z,95330.13
2023-01-02T18:26:38.117Z,95333.44
2023-01-02T18:29:13.501Z,95340.28
2023-01-02T18:31:43.467Z,95331.41
2023-01-02T18:34:47.588Z,95333.66
2023-01-02T18:37:20.302Z,95331.97
2023-01-02T18:39:48.482Z,95332.34
2023-01-02T18:42:23.338Z,95317.28
2023-01-02T18:44:52.084Z,95325.28
2023-01-02T18:47:34.895Z,95327.91
2023-01-02T18:50:27.361Z,95335.25
2023-01-02T18:52:54.216Z,95341.66
2023-01-02T18:55:27.396Z,95348.94
2023-01-02T18:57:56.259Z,95346.03
2023-01-02T19:00:28.380Z,95342.72
2023-01-02T19:03:01.077Z,95344.69
2023-01-02T19:05:40.991Z,95349.47
2023-01-02T19:08:37.386Z,95352.41
2023-01-02T19:11:37.443Z,95346.03
2023-01-02T19:14:23.558Z,95351.97
2023-01-02T19:17:05.998Z,95359.53
2023-01-02T19:19:38.621Z,95360.88
2023-01-02T19:22:14.829Z,95371.78
2023-01-02T19:24:41.735Z,95362.09
2023-01-02T19:27:35.609Z,95365.56
2023-01-02T19:30:07.940Z,95370.50
2023-01-02T19:32:36.261Z,95365.84
2023-01-02T19:35:34.630Z,95373.75
2023-01-02T19:38:17.510Z,95367.59
2023-01-02T19:40:44.227Z,95365.09
2023-01-02T19:43:11.002Z,95367.59
2023-01-02T19:45:37.716Z,95375.63
2023-01-02T19:48:04.596Z,95388.19
2023-01-02T19:50:31.312Z,95373.91
2023-01-02T19:52:58.031Z,95377.38
2023-01-02T19:55:24.755Z,95392.78
2023-01-02T19:57:51.555Z,95392.97
2023-01-02T20:00:19.639Z,95406.88
2023-01-02T20:02:49.757Z,95401.34
2023-01-02T20:05:21.872Z,95405.91
2023-01-02T20:07:51.491Z,95404.25
2023-01-02T20:10:18.871Z,95397.94
2023-01-02T20:12:45.816Z,95391.88
2023-01-02T20:15:23.728Z,95413.81
2023-01-02T20:17:52.065Z,95418.00
2023-01-02T20:20:22.961Z,95418.84
2023-01-02T20:22:51.932Z,95419.16
2023-01-02T20:25:24.187Z,95417.13
2023-01-02T20:27:53.471Z,95422.88
2023-01-02T20:30:24.669Z,95401.88
2023-01-02T20:32:53.595Z,95423.72
2023-01-02T20:35:20.375Z,95435.06
2023-01-02T20:37:48.057Z,95445.88
2023-01-02T20:40:14.890Z,95438.44
2023-01-02T20:42:41.730Z,95441.66
2023-01-02T20:45:09.453Z,95457.28
2023-01-02T20:47:36.555Z,95452.50
2023-01-02T20:50:04.575Z,95461.25
2023-01-02T20:52:31.353Z,95461.13
2023-01-02T20:54:58.940Z,95466.38
2023-01-02T20:57:25.690Z,95479.66
2023-01-02T20:59:52.563Z,95473.56
2023-01-02T21:02:19.514Z,95455.09
2023-01-02T21:04:46.367Z,95467.69
2023-01-02T21:07:13.324Z,95468.69
2023-01-02T21:09:40.069Z,95478.88
2023-01-02T21:12:26.829Z,95481.66
2023-01-02T21:14:54.302Z,95477.81
2023-01-02T21:17:21.035Z,95473.41
2023-01-02T21:19:47.828Z,95482.81
2023-01-02T21:22:15.587Z,95476.19
2023-01-02T21:24:42.323Z,95493.88
2023-01-02T21:27:12.978Z,95495.69
2023-01-02T21:29:40.565Z,95492.22
2023-01-02T21:32:07.312Z,95479.94
2023-01-02T21:34:34.108Z,95496.38
2023-01-02T21:37:01.002Z,95509.06
2023-01-02T21:39:27.795Z,95517.13
2023-01-02T21:42:13.044Z,95514.06
2023-01-02T21:44:39.783Z,95505.50
2023-01-02T21:47:06.557Z,95508.94
2023-01-02T21:49:33.348Z,95513.50
2023-01-02T21:52:00.355Z,95518.94
2023-01-02T21:54:27.836Z,95527.34
2023-01-02T21:56:54.667Z,95519.88
2023-01-02T21:59:25.288Z,95522.91
2023-01-02T22:01:53.704Z,95535.91
2023-01-02T22:04:22.105Z,95533.53
2023-01-02T22:07:29.994Z,95534.78
2023-01-02T22:09:36.568Z,95531.75
2023-01-02T22:12:03.557Z,95542.38
2023-01-02T22:14:32.669Z,95533.94
2023-01-02T22:17:08.503Z,95546.25
2023-01-02T22:19:36.429Z,95558.09
2023-01-02T22:22:04.091Z,95547.47
2023-01-02T22:24:31.026Z,95550.50
2023-01-02T22:27:03.778Z,95562.66
2023-01-02T22:30:00.530Z,95558.66
2023-01-02T22:32:19.154Z,95568.44
2023-01-02T22:34:45.971Z,95580.31
2023-01-02T22:37:20.323Z,95578.38
2023-01-02T22:39:49.322Z,95582.09
2023-01-02T22:45:36.795Z,95583.84
2023-01-02T22:48:06.553Z,95604.44
2023-01-02T22:50:43.921Z,95601.25
2023-01-02T22:53:29.238Z,95600.41
2023-01-02T22:55:56.212Z,95593.91
2023-01-02T22:58:23.521Z,95591.00
2023-01-02T23:01:00.407Z,95596.53
2023-01-02T23:03:39.334Z,95595.13
2023-01-02T23:06:06.479Z,95588.66
2023-01-02T23:08:33.429Z,95597.47
2023-01-02T23:11:00.700Z,95586.53
2023-01-02T23:13:27.772Z,95586.78
2023-01-02T23:16:13.213Z,95594.25
2023-01-02T23:18:58.856Z,95600.72
2023-01-02T23:21:27.973Z,95600.94
2023-01-02T23:23:54.873Z,95598.22
2023-01-02T23:26:24.755Z,95594.31
2023-01-02T23:29:08.459Z,95586.56
2023-01-02T23:31:44.285Z,95583.13
2023-01-02T23:34:13.535Z,95575.91
2023-01-02T23:36:41.674Z,95586.00
2023-01-02T23:39:16.086Z,95595.38
2023-01-02T23:41:43.883Z,95599.63
2023-01-02T23:44:15.236Z,95594.66
2023-01-02T23:46:42.944Z,95611.09
2023-01-02T23:49:11.343Z,95618.94
2023-01-02T23:51:39.910Z,95614.47
2023-01-02T23:54:14.185Z,95621.31
2023-01-02T23:56:44.060Z,95617.59
2023-01-02T23:59:16.152Z,95611.66
